sensor_id;sensor_type;location;lat;lon;timestamp;pressure;altitude;pressure_sealevel;temperature;humidity
7309;BME280;3695;53.330;9.876;2023-01-29T00:01:44;104848.31;;;2.38;100.00
7309;BME280;3695;53.330;9.876;2023-01-29T00:04:11;104881.78;;;2.48;100.00
7309;BME280;3695;53.330;9.876;2023-01-29T00:06:37;104911.25;;;2.48;100.00
7309;BME280;3695;53.330;9.876;2023-01-29T00:09:04;104939.53;;;2.56;100.00
7309;BME280;3695;53.330;9.876;2023-01-29T00:11:30;104941.66;;;2.47;100.00
7309;BME280;3695;53.330;9.876;2023-01-29T00:13:57;104958.53;;;2.49;100.00
7309;BME280;3695;53.330;9.876;2023-01-29T00:16:25;104974.72;;;2.46;100.00
7309;BME280;3695;53.330;9.876;2023-01-29T00:18:51;105004.88;;;2.51;100.00
7309;BME280;3695;53.330;9.876;2023-01-29T00:21:19;105005.78;;;2.50;100.00
7309;BME280;3695;53.330;9.876;2023-01-29T00:23:47;105021.75;;;2.53;100.00
7309;BME280;3695;53.330;9.876;2023-01-29T00:26:14;105021.75;;;2.53;100.00
7309;BME280;3695;53.330;9.876;2023-01-29T00:28:41;105030.84;;;2.49;100.00
7309;BME280;3695;53.330;9.876;2023-01-29T00:31:09;105049.53;;;2.51;100.00
7309;BME280;3695;53.330;9.876;2023-01-29T00:33:37;105042.94;;;2.36;100.00
7309;BME280;3695;53.330;9.876;2023-01-29T00:36:05;105046.56;;;2.35;100.00
7309;BME280;3695;53.330;9.876;2023-01-29T00:38:33;105061.59;;;2.39;100.00
7309;BME280;3695;53.330;9.876;2023-01-29T00:41:04;105086.38;;;2.44;100.00
7309;BME280;3695;53.330;9.876;2023-01-29T00:43:49;105105.78;;;2.51;100.00
7309;BME280;3695;53.330;9.876;2023-01-29T00:46:33;105112.94;;;2.50;100.00
7309;BME280;3695;53.330;9.876;2023-01-29T00:49:00;105121.38;;;2.40;100.00
7309;BME280;3695;53.330;9.876;2023-01-29T00:51:27;105168.19;;;2.53;100.00
7309;BME280;3695;53.330;9.876;2023-01-29T00:53:54;105154.78;;;2.53;100.00
7309;BME280;3695;53.330;9.876;2023-01-29T00:56:22;105161.06;;;2.29;100.00
7309;BME280;3695;53.330;9.876;2023-01-29T00:58:49;105192.88;;;2.36;100.00
7309;BME280;3695;53.330;9.876;2023-01-29T01:01:15;105227.63;;;2.63;100.00
7309;BME280;3695;53.330;9.876;2023-01-29T01:04:03;105225.53;;;2.47;100.00
7309;BME280;3695;53.330;9.876;2023-01-29T01:06:29;105236.59;;;2.38;100.00
7309;BME280;3695;53.330;9.876;2023-01-29T01:08:55;105250.22;;;2.56;100.00
7309;BME280;3695;53.330;9.876;2023-01-29T01:11:39;105252.66;;;2.38;100.00
7309;BME280;3695;53.330;9.876;2023-01-29T01:14:06;105271.19;;;2.44;100.00
7309;BME280;3695;53.330;9.876;2023-01-29T01:16:32;105281.19;;;2.39;100.00
7309;BME280;3695;53.330;9.876;2023-01-29T01:18:59;105290.00;;;2.16;100.00
7309;BME280;3695;53.330;9.876;2023-01-29T01:21:26;105308.69;;;2.44;100.00
7309;BME280;3695;53.330;9.876;2023-01-29T01:23:53;105326.44;;;2.47;100.00
7309;BME280;3695;53.330;9.876;2023-01-29T01:26:19;105317.44;;;2.23;100.00
7309;BME280;3695;53.330;9.876;2023-01-29T01:28:46;105317.94;;;2.34;100.00
7309;BME280;3695;53.330;9.876;2023-01-29T01:31:13;105328.75;;;2.31;100.00
7309;BME280;3695;53.330;9.876;2023-01-29T01:33:39;105324.53;;;2.24;100.00
7309;BME280;3695;53.330;9.876;2023-01-29T01:36:07;105338.44;;;2.35;100.00
7309;BME280;3695;53.330;9.876;2023-01-29T01:38:36;105371.59;;;2.31;100.00
7309;BME280;3695;53.330;9.876;2023-01-29T01:41:09;105358.25;;;2.30;100.00
7309;BME280;3695;53.330;9.876;2023-01-29T01:43:49;105375.75;;;2.41;100.00
7309;BME280;3695;53.330;9.876;2023-01-29T01:46:16;105374.00;;;2.40;100.00
7309;BME280;3695;53.330;9.876;2023-01-29T01:48:43;105364.66;;;2.26;100.00
7309;BME280;3695;53.330;9.876;2023-01-29T01:51:10;105357.69;;;2.20;100.00
7309;BME280;3695;53.330;9.876;2023-01-29T01:53:40;105367.16;;;2.30;100.00
7309;BME280;3695;53.330;9.876;2023-01-29T01:56:11;105363.09;;;2.18;100.00
7309;BME280;3695;53.330;9.876;2023-01-29T01:58:41;105390.88;;;2.42;100.00
7309;BME280;3695;53.330;9.876;2023-01-29T02:01:08;105401.88;;;2.60;100.00
7309;BME280;3695;53.330;9.876;2023-01-29T02:03:45;105399.41;;;2.53;100.00
7309;BME280;3695;53.330;9.876;2023-01-29T02:06:33;105374.75;;;2.44;100.00
7309;BME280;3695;53.330;9.876;2023-01-29T02:09:22;105368.53;;;2.43;100.00
7309;BME280;3695;53.330;9.876;2023-01-29T02:11:58;105350.94;;;2.35;100.00
7309;BME280;3695;53.330;9.876;2023-01-29T02:14:25;105370.56;;;2.35;100.00
7309;BME280;3695;53.330;9.876;2023-01-29T02:16:52;105363.56;;;2.31;100.00
7309;BME280;3695;53.330;9.876;2023-01-29T02:19:24;105390.16;;;2.37;100.00
7309;BME280;3695;53.330;9.876;2023-01-29T02:25:20;105388.38;;;2.36;100.00
7309;BME280;3695;53.330;9.876;2023-01-29T02:28:06;105381.19;;;2.38;100.00
7309;BME280;3695;53.330;9.876;2023-01-29T02:30:39;105382.41;;;2.28;100.00
7309;BME280;3695;53.330;9.876;2023-01-29T02:33:15;105397.75;;;2.23;100.00
7309;BME280;3695;53.330;9.876;2023-01-29T02:35:51;105411.38;;;2.43;100.00
7309;BME280;3695;53.330;9.876;2023-01-29T02:38:27;105418.44;;;2.46;100.00
7309;BME280;3695;53.330;9.876;2023-01-29T02:41:00;105403.69;;;2.33;100.00
7309;BME280;3695;53.330;9.876;2023-01-29T02:43:35;105407.50;;;2.52;100.00
7309;BME280;3695;53.330;9.876;2023-01-29T02:46:11;105402.19;;;2.50;100.00
7309;BME280;3695;53.330;9.876;2023-01-29T02:48:44;105389.31;;;2.35;100.00
7309;BME280;3695;53.330;9.876;2023-01-29T02:51:17;105398.31;;;2.33;100.00
7309;BME280;3695;53.330;9.876;2023-01-29T02:53:52;105415.69;;;2.47;100.00
7309;BME280;3695;53.330;9.876;2023-01-29T02:56:23;105416.19;;;2.32;100.00
7309;BME280;3695;53.330;9.876;2023-01-29T02:58:57;105440.00;;;2.41;100.00
7309;BME280;3695;53.330;9.876;2023-01-29T03:01:29;105474.38;;;2.55;100.00
7309;BME280;3695;53.330;9.876;2023-01-29T03:04:01;105468.97;;;2.29;100.00
7309;BME280;3695;53.330;9.876;2023-01-29T03:06:32;105487.28;;;2.42;100.00
7309;BME280;3695;53.330;9.876;2023-01-29T03:09:04;105511.41;;;2.42;100.00
7309;BME280;3695;53.330;9.876;2023-01-29T03:11:37;105542.63;;;2.43;100.00
7309;BME280;3695;53.330;9.876;2023-01-29T03:14:08;105566.53;;;2.49;100.00
7309;BME280;3695;53.330;9.876;2023-01-29T03:16:39;105589.03;;;2.44;100.00
7309;BME280;3695;53.330;9.876;2023-01-29T03:19:09;105608.38;;;2.53;100.00
7309;BME280;3695;53.330;9.876;2023-01-29T03:21:40;105600.56;;;2.46;100.00
7309;BME280;3695;53.330;9.876;2023-01-29T03:24:29;105597.53;;;2.27;100.00
7309;BME280;3695;53.330;9.876;2023-01-29T03:27:19;105645.47;;;2.36;100.00
7309;BME280;3695;53.330;9.876;2023-01-29T03:30:07;105667.81;;;2.35;100.00
7309;BME280;3695;53.330;9.876;2023-01-29T03:32:52;105699.13;;;2.33;100.00
7309;BME280;3695;53.330;9.876;2023-01-29T03:35:22;105761.63;;;2.65;100.00
7309;BME280;3695;53.330;9.876;2023-01-29T03:37:59;105762.03;;;2.51;100.00
7309;BME280;3695;53.330;9.876;2023-01-29T03:40:28;105756.06;;;2.41;100.00
7309;BME280;3695;53.330;9.876;2023-01-29T03:43:05;105773.66;;;2.50;100.00
7309;BME280;3695;53.330;9.876;2023-01-29T03:45:40;105800.66;;;2.42;100.00
7309;BME280;3695;53.330;9.876;2023-01-29T03:48:14;105807.53;;;2.52;100.00
7309;BME280;3695;53.330;9.876;2023-01-29T03:50:51;105850.25;;;2.57;100.00
7309;BME280;3695;53.330;9.876;2023-01-29T03:53:23;105901.22;;;2.56;100.00
7309;BME280;3695;53.330;9.876;2023-01-29T03:55:54;105894.25;;;2.48;100.00
7309;BME280;3695;53.330;9.876;2023-01-29T03:58:32;105909.31;;;2.52;100.00
7309;BME280;3695;53.330;9.876;2023-01-29T04:01:03;105907.00;;;2.39;100.00
7309;BME280;3695;53.330;9.876;2023-01-29T04:03:33;105955.75;;;2.53;100.00
7309;BME280;3695;53.330;9.876;2023-01-29T04:06:07;105955.16;;;2.42;100.00
7309;BME280;3695;53.330;9.876;2023-01-29T04:08:45;105970.03;;;2.53;100.00
7309;BME280;3695;53.330;9.876;2023-01-29T04:11:16;105982.75;;;2.45;100.00
7309;BME280;3695;53.330;9.876;2023-01-29T04:13:44;105999.69;;;2.46;100.00
7309;BME280;3695;53.330;9.876;2023-01-29T04:16:17;105987.13;;;2.48;100.00
7309;BME280;3695;53.330;9.876;2023-01-29T04:18:45;105991.69;;;2.44;100.00
7309;BME280;3695;53.330;9.876;2023-01-29T04:21:13;105955.00;;;2.48;100.00
7309;BME280;3695;53.330;9.876;2023-01-29T04:23:40;105940.22;;;2.30;100.00
7309;BME280;3695;53.330;9.876;2023-01-29T04:26:18;105947.44;;;2.28;100.00
7309;BME280;3695;53.330;9.876;2023-01-29T04:29:12;105983.00;;;2.33;100.00
7309;BME280;3695;53.330;9.876;2023-01-29T04:31:46;105990.34;;;2.25;100.00
7309;BME280;3695;53.330;9.876;2023-01-29T04:34:20;106013.31;;;2.35;100.00
7309;BME280;3695;53.330;9.876;2023-01-29T04:36:56;106016.84;;;2.39;100.00
7309;BME280;3695;53.330;9.876;2023-01-29T04:39:28;105988.50;;;2.27;100.00
7309;BME280;3695;53.330;9.876;2023-01-29T04:42:05;106013.16;;;2.43;100.00
7309;BME280;3695;53.330;9.876;2023-01-29T04:44:36;105944.13;;;2.17;100.00
7309;BME280;3695;53.330;9.876;2023-01-29T04:47:11;105916.41;;;2.19;100.00
7309;BME280;3695;53.330;9.876;2023-01-29T04:49:44;105932.16;;;2.32;100.00
7309;BME280;3695;53.330;9.876;2023-01-29T04:52:16;105900.91;;;2.32;100.00
7309;BME280;3695;53.330;9.876;2023-01-29T04:54:53;105888.31;;;2.37;100.00
7309;BME280;3695;53.330;9.876;2023-01-29T04:57:28;105845.03;;;2.18;100.00
7309;BME280;3695;53.330;9.876;2023-01-29T04:59:59;105850.94;;;2.31;100.00
7309;BME280;3695;53.330;9.876;2023-01-29T05:02:30;105834.88;;;2.31;100.00
7309;BME280;3695;53.330;9.876;2023-01-29T05:04:59;105816.66;;;2.11;100.00
7309;BME280;3695;53.330;9.876;2023-01-29T05:07:27;105830.25;;;2.38;100.00
7309;BME280;3695;53.330;9.876;2023-01-29T05:09:56;105792.53;;;2.13;100.00
7309;BME280;3695;53.330;9.876;2023-01-29T05:12:25;105778.72;;;2.28;100.00
7309;BME280;3695;53.330;9.876;2023-01-29T05:14:56;105736.16;;;2.17;100.00
7309;BME280;3695;53.330;9.876;2023-01-29T05:17:25;105729.69;;;2.26;100.00
7309;BME280;3695;53.330;9.876;2023-01-29T05:19:54;105706.75;;;2.16;100.00
7309;BME280;3695;53.330;9.876;2023-01-29T05:22:21;105660.41;;;2.14;100.00
7309;BME280;3695;53.330;9.876;2023-01-29T05:24:48;105643.25;;;2.21;100.00
7309;BME280;3695;53.330;9.876;2023-01-29T05:27:17;105639.09;;;2.11;100.00
7309;BME280;3695;53.330;9.876;2023-01-29T05:30:01;105628.19;;;2.17;100.00
7309;BME280;3695;53.330;9.876;2023-01-29T05:32:27;105627.84;;;2.29;100.00
7309;BME280;3695;53.330;9.876;2023-01-29T05:34:55;105602.66;;;2.05;100.00
7309;BME280;3695;53.330;9.876;2023-01-29T05:37:22;105621.28;;;2.10;100.00
7309;BME280;3695;53.330;9.876;2023-01-29T05:39:48;105596.53;;;2.02;100.00
7309;BME280;3695;53.330;9.876;2023-01-29T05:42:14;105601.78;;;2.05;100.00
7309;BME280;3695;53.330;9.876;2023-01-29T05:44:41;105575.03;;;2.05;100.00
7309;BME280;3695;53.330;9.876;2023-01-29T05:47:08;105578.94;;;2.22;100.00
7309;BME280;3695;53.330;9.876;2023-01-29T05:49:34;105537.72;;;1.99;100.00
7309;BME280;3695;53.330;9.876;2023-01-29T05:52:02;105538.78;;;1.93;100.00
7309;BME280;3695;53.330;9.876;2023-01-29T05:54:29;105539.13;;;2.12;100.00
7309;BME280;3695;53.330;9.876;2023-01-29T05:56:55;105495.19;;;1.89;100.00
7309;BME280;3695;53.330;9.876;2023-01-29T05:59:22;105486.25;;;1.91;100.00
7309;BME280;3695;53.330;9.876;2023-01-29T06:01:48;105468.50;;;1.86;100.00
7309;BME280;3695;53.330;9.876;2023-01-29T06:04:15;105475.50;;;1.92;100.00
7309;BME280;3695;53.330;9.876;2023-01-29T06:06:41;105458.66;;;1.87;100.00
7309;BME280;3695;53.330;9.876;2023-01-29T06:09:10;105462.50;;;2.08;100.00
7309;BME280;3695;53.330;9.876;2023-01-29T06:11:37;105447.72;;;1.96;100.00
7309;BME280;3695;53.330;9.876;2023-01-29T06:14:03;105456.75;;;2.20;100.00
7309;BME280;3695;53.330;9.876;2023-01-29T06:16:29;105440.78;;;2.17;100.00
7309;BME280;3695;53.330;9.876;2023-01-29T06:18:56;105396.72;;;2.01;100.00
7309;BME280;3695;53.330;9.876;2023-01-29T06:21:22;105401.25;;;2.25;100.00
7309;BME280;3695;53.330;9.876;2023-01-29T06:23:51;105372.06;;;2.17;100.00
7309;BME280;3695;53.330;9.876;2023-01-29T06:26:19;105365.72;;;2.20;100.00
7309;BME280;3695;53.330;9.876;2023-01-29T06:28:47;105370.22;;;2.19;100.00
7309;BME280;3695;53.330;9.876;2023-01-29T06:31:14;105371.44;;;2.36;100.00
7309;BME280;3695;53.330;9.876;2023-01-29T06:33:40;105332.41;;;2.29;100.00
7309;BME280;3695;53.330;9.876;2023-01-29T06:36:07;105315.03;;;2.15;100.00
7309;BME280;3695;53.330;9.876;2023-01-29T06:38:34;105310.28;;;2.24;100.00
7309;BME280;3695;53.330;9.876;2023-01-29T06:41:07;105298.69;;;2.23;100.00
7309;BME280;3695;53.330;9.876;2023-01-29T06:43:35;105293.59;;;2.15;100.00
7309;BME280;3695;53.330;9.876;2023-01-29T06:46:03;105296.00;;;2.23;100.00
7309;BME280;3695;53.330;9.876;2023-01-29T06:48:29;105267.50;;;2.22;100.00
7309;BME280;3695;53.330;9.876;2023-01-29T06:51:00;105260.06;;;2.30;100.00
7309;BME280;3695;53.330;9.876;2023-01-29T06:53:27;105249.34;;;2.30;100.00
7309;BME280;3695;53.330;9.876;2023-01-29T06:55:53;105213.91;;;2.24;100.00
7309;BME280;3695;53.330;9.876;2023-01-29T06:58:20;105193.13;;;2.30;100.00
7309;BME280;3695;53.330;9.876;2023-01-29T07:00:48;105178.09;;;2.26;100.00
7309;BME280;3695;53.330;9.876;2023-01-29T07:03:14;105162.16;;;2.23;100.00
7309;BME280;3695;53.330;9.876;2023-01-29T07:05:41;105176.47;;;2.22;100.00
7309;BME280;3695;53.330;9.876;2023-01-29T07:08:07;105156.44;;;2.32;100.00
7309;BME280;3695;53.330;9.876;2023-01-29T07:10:35;105135.66;;;2.15;100.00
7309;BME280;3695;53.330;9.876;2023-01-29T07:13:01;105118.97;;;2.32;100.00
7309;BME280;3695;53.330;9.876;2023-01-29T07:15:28;105100.34;;;2.06;100.00
7309;BME280;3695;53.330;9.876;2023-01-29T07:17:57;105117.03;;;2.12;100.00
7309;BME280;3695;53.330;9.876;2023-01-29T07:20:24;105137.13;;;2.24;100.00
7309;BME280;3695;53.330;9.876;2023-01-29T07:22:51;105130.13;;;2.20;100.00
7309;BME280;3695;53.330;9.876;2023-01-29T07:25:17;105122.81;;;2.25;100.00
7309;BME280;3695;53.330;9.876;2023-01-29T07:27:44;105095.69;;;2.11;100.00
7309;BME280;3695;53.330;9.876;2023-01-29T07:30:11;105096.75;;;2.07;100.00
7309;BME280;3695;53.330;9.876;2023-01-29T07:32:38;105118.72;;;2.15;100.00
7309;BME280;3695;53.330;9.876;2023-01-29T07:35:06;105126.41;;;2.24;100.00
7309;BME280;3695;53.330;9.876;2023-01-29T07:37:33;105121.28;;;2.18;100.00
7309;BME280;3695;53.330;9.876;2023-01-29T07:39:59;105132.47;;;2.29;100.00
7309;BME280;3695;53.330;9.876;2023-01-29T07:42:26;105137.25;;;2.21;100.00
7309;BME280;3695;53.330;9.876;2023-01-29T07:44:52;105142.53;;;2.22;100.00
7309;BME280;3695;53.330;9.876;2023-01-29T07:47:19;105140.56;;;2.28;100.00
7309;BME280;3695;53.330;9.876;2023-01-29T07:49:45;105140.28;;;2.35;100.00
7309;BME280;3695;53.330;9.876;2023-01-29T07:52:13;105135.91;;;2.33;100.00
7309;BME280;3695;53.330;9.876;2023-01-29T07:54:39;105120.28;;;2.45;100.00
7309;BME280;3695;53.330;9.876;2023-01-29T07:57:06;105111.66;;;2.37;100.00
7309;BME280;3695;53.330;9.876;2023-01-29T07:59:32;105104.69;;;2.32;100.00
7309;BME280;3695;53.330;9.876;2023-01-29T08:01:58;105116.41;;;2.52;100.00
7309;BME280;3695;53.330;9.876;2023-01-29T08:04:25;105106.06;;;2.43;100.00
7309;BME280;3695;53.330;9.876;2023-01-29T08:06:51;105094.53;;;2.18;100.00
7309;BME280;3695;53.330;9.876;2023-01-29T08:09:19;105091.97;;;2.38;100.00
7309;BME280;3695;53.330;9.876;2023-01-29T08:11:45;105112.06;;;2.50;100.00
7309;BME280;3695;53.330;9.876;2023-01-29T08:14:12;105106.06;;;2.43;100.00
7309;BME280;3695;53.330;9.876;2023-01-29T08:16:39;105094.47;;;2.43;100.00
7309;BME280;3695;53.330;9.876;2023-01-29T08:19:05;105088.88;;;2.49;100.00
7309;BME280;3695;53.330;9.876;2023-01-29T08:21:31;105104.66;;;2.57;100.00
7309;BME280;3695;53.330;9.876;2023-01-29T08:23:58;105089.81;;;2.48;100.00
7309;BME280;3695;53.330;9.876;2023-01-29T08:26:25;105107.22;;;2.60;100.00
7309;BME280;3695;53.330;9.876;2023-01-29T08:28:52;105108.25;;;2.56;100.00
7309;BME280;3695;53.330;9.876;2023-01-29T08:31:19;105118.69;;;2.63;100.00
7309;BME280;3695;53.330;9.876;2023-01-29T08:33:45;105114.25;;;2.62;100.00
7309;BME280;3695;53.330;9.876;2023-01-29T08:36:12;105121.03;;;2.71;100.00
7309;BME280;3695;53.330;9.876;2023-01-29T08:38:38;105118.56;;;2.66;100.00
7309;BME280;3695;53.330;9.876;2023-01-29T08:41:05;105132.50;;;2.74;100.00
7309;BME280;3695;53.330;9.876;2023-01-29T08:43:34;105137.81;;;2.76;100.00
7309;BME280;3695;53.330;9.876;2023-01-29T08:46:02;105159.00;;;2.82;100.00
7309;BME280;3695;53.330;9.876;2023-01-29T08:48:28;105141.09;;;2.61;100.00
7309;BME280;3695;53.330;9.876;2023-01-29T08:50:56;105170.19;;;2.93;100.00
7309;BME280;3695;53.330;9.876;2023-01-29T08:53:22;105159.13;;;2.79;100.00
7309;BME280;3695;53.330;9.876;2023-01-29T08:55:50;105172.19;;;2.88;100.00
7309;BME280;3695;53.330;9.876;2023-01-29T08:58:16;105170.66;;;2.81;100.00
7309;BME280;3695;53.330;9.876;2023-01-29T09:00:44;105174.63;;;2.71;100.00
7309;BME280;3695;53.330;9.876;2023-01-29T09:03:10;105195.25;;;2.92;100.00
7309;BME280;3695;53.330;9.876;2023-01-29T09:05:38;105201.78;;;2.85;100.00
7309;BME280;3695;53.330;9.876;2023-01-29T09:08:05;105209.59;;;2.91;100.00
7309;BME280;3695;53.330;9.876;2023-01-29T09:10:33;105214.75;;;2.72;100.00
7309;BME280;3695;53.330;9.876;2023-01-29T09:13:00;105216.47;;;2.98;100.00
7309;BME280;3695;53.330;9.876;2023-01-29T09:15:26;105234.91;;;3.06;100.00
7309;BME280;3695;53.330;9.876;2023-01-29T09:17:54;105227.81;;;3.05;100.00
7309;BME280;3695;53.330;9.876;2023-01-29T09:20:21;105222.50;;;3.03;100.00
7309;BME280;3695;53.330;9.876;2023-01-29T09:22:47;105217.28;;;3.00;100.00
7309;BME280;3695;53.330;9.876;2023-01-29T09:25:16;105215.53;;;2.99;100.00
7309;BME280;3695;53.330;9.876;2023-01-29T09:27:42;105227.19;;;3.20;100.00
7309;BME280;3695;53.330;9.876;2023-01-29T09:30:10;105187.09;;;3.17;100.00
7309;BME280;3695;53.330;9.876;2023-01-29T09:32:36;105191.41;;;3.21;100.00
7309;BME280;3695;53.330;9.876;2023-01-29T09:35:05;105202.19;;;3.20;100.00
7309;BME280;3695;53.330;9.876;2023-01-29T09:37:31;105168.22;;;2.98;100.00
7309;BME280;3695;53.330;9.876;2023-01-29T09:39:58;105215.34;;;3.26;100.00
7309;BME280;3695;53.330;9.876;2023-01-29T09:42:27;105173.38;;;3.03;100.00
7309;BME280;3695;53.330;9.876;2023-01-29T09:45:00;105210.47;;;3.13;100.00
7309;BME280;3695;53.330;9.876;2023-01-29T09:47:31;105215.47;;;3.23;100.00
7309;BME280;3695;53.330;9.876;2023-01-29T09:50:00;105213.16;;;3.13;100.00
7309;BME280;3695;53.330;9.876;2023-01-29T09:52:33;105233.19;;;3.27;100.00
7309;BME280;3695;53.330;9.876;2023-01-29T09:55:04;105231.56;;;3.23;100.00
7309;BME280;3695;53.330;9.876;2023-01-29T09:57:38;105232.81;;;3.14;100.00
7309;BME280;3695;53.330;9.876;2023-01-29T10:00:14;105246.41;;;3.09;100.00
7309;BME280;3695;53.330;9.876;2023-01-29T10:02:58;105259.38;;;3.20;100.00
7309;BME280;3695;53.330;9.876;2023-01-29T10:05:46;105258.50;;;3.20;100.00
7309;BME280;3695;53.330;9.876;2023-01-29T10:08:49;105278.63;;;3.31;100.00
7309;BME280;3695;53.330;9.876;2023-01-29T10:11:29;105288.09;;;3.40;100.00
7309;BME280;3695;53.330;9.876;2023-01-29T10:14:09;105262.53;;;3.31;100.00
7309;BME280;3695;53.330;9.876;2023-01-29T10:16:45;105258.91;;;3.32;100.00
7309;BME280;3695;53.330;9.876;2023-01-29T10:19:33;105235.19;;;3.22;100.00
7309;BME280;3695;53.330;9.876;2023-01-29T10:22:20;105231.94;;;3.13;100.00
7309;BME280;3695;53.330;9.876;2023-01-29T10:24:53;105259.50;;;3.17;100.00
7309;BME280;3695;53.330;9.876;2023-01-29T10:27:21;105278.63;;;3.31;100.00
7309;BME280;3695;53.330;9.876;2023-01-29T10:29:49;105291.84;;;3.36;100.00
7309;BME280;3695;53.330;9.876;2023-01-29T10:32:20;105251.50;;;3.15;100.00
7309;BME280;3695;53.330;9.876;2023-01-29T10:34:51;105258.03;;;3.32;100.00
7309;BME280;3695;53.330;9.876;2023-01-29T10:37:21;105224.38;;;3.23;100.00
7309;BME280;3695;53.330;9.876;2023-01-29T10:39:48;105248.94;;;3.36;100.00
7309;BME280;3695;53.330;9.876;2023-01-29T10:42:22;105238.34;;;3.33;100.00
7309;BME280;3695;53.330;9.876;2023-01-29T10:45:05;105236.34;;;3.38;100.00
7309;BME280;3695;53.330;9.876;2023-01-29T10:47:47;105232.97;;;3.33;100.00
7309;BME280;3695;53.330;9.876;2023-01-29T10:50:27;105230.28;;;3.55;100.00
7309;BME280;3695;53.330;9.876;2023-01-29T10:53:15;105209.75;;;3.32;100.00
7309;BME280;3695;53.330;9.876;2023-01-29T10:55:51;105195.25;;;3.58;100.00
7309;BME280;3695;53.330;9.876;2023-01-29T10:58:29;105201.25;;;3.64;100.00
7309;BME280;3695;53.330;9.876;2023-01-29T11:00:57;105176.22;;;3.64;100.00
7309;BME280;3695;53.330;9.876;2023-01-29T11:03:25;105139.50;;;3.44;100.00
7309;BME280;3695;53.330;9.876;2023-01-29T11:05:57;105130.25;;;3.51;100.00
7309;BME280;3695;53.330;9.876;2023-01-29T11:08:30;105110.41;;;3.55;100.00
7309;BME280;3695;53.330;9.876;2023-01-29T11:11:03;105098.13;;;3.50;100.00
7309;BME280;3695;53.330;9.876;2023-01-29T11:13:37;105083.66;;;3.33;100.00
7309;BME280;3695;53.330;9.876;2023-01-29T11:16:07;105071.69;;;3.20;100.00
7309;BME280;3695;53.330;9.876;2023-01-29T11:18:55;105109.34;;;3.39;100.00
7309;BME280;3695;53.330;9.876;2023-01-29T11:21:22;105123.63;;;3.17;100.00
7309;BME280;3695;53.330;9.876;2023-01-29T11:23:49;105166.72;;;3.35;100.00
7309;BME280;3695;53.330;9.876;2023-01-29T11:26:19;105152.00;;;3.45;100.00
7309;BME280;3695;53.330;9.876;2023-01-29T11:28:50;105146.56;;;3.46;100.00
7309;BME280;3695;53.330;9.876;2023-01-29T11:31:21;105118.31;;;3.38;100.00
7309;BME280;3695;53.330;9.876;2023-01-29T11:33:51;105126.66;;;3.52;100.00
7309;BME280;3695;53.330;9.876;2023-01-29T11:36:27;105110.41;;;3.55;100.00
7309;BME280;3695;53.330;9.876;2023-01-29T11:39:09;105103.56;;;3.68;100.00
7309;BME280;3695;53.330;9.876;2023-01-29T11:41:42;105078.13;;;3.77;100.00
7309;BME280;3695;53.330;9.876;2023-01-29T11:44:25;105021.97;;;3.72;100.00
7309;BME280;3695;53.330;9.876;2023-01-29T11:46:52;104989.78;;;3.72;100.00
7309;BME280;3695;53.330;9.876;2023-01-29T11:49:32;104945.88;;;3.36;100.00
7309;BME280;3695;53.330;9.876;2023-01-29T11:52:01;104964.84;;;3.70;100.00
7309;BME280;3695;53.330;9.876;2023-01-29T11:54:33;104940.03;;;3.65;100.00
7309;BME280;3695;53.330;9.876;2023-01-29T11:57:03;104938.00;;;3.70;100.00
7309;BME280;3695;53.330;9.876;2023-01-29T11:59:40;104899.28;;;3.57;100.00
7309;BME280;3695;53.330;9.876;2023-01-29T12:02:20;104888.19;;;3.65;100.00
7309;BME280;3695;53.330;9.876;2023-01-29T12:04:51;104868.69;;;3.80;100.00
7309;BME280;3695;53.330;9.876;2023-01-29T12:07:19;104851.41;;;3.67;100.00
7309;BME280;3695;53.330;9.876;2023-01-29T12:09:52;104790.81;;;3.44;100.00
7309;BME280;3695;53.330;9.876;2023-01-29T12:12:37;104781.94;;;3.61;100.00
7309;BME280;3695;53.330;9.876;2023-01-29T12:15:18;104759.59;;;3.79;100.00
7309;BME280;3695;53.330;9.876;2023-01-29T12:17:58;104718.75;;;3.72;100.00
7309;BME280;3695;53.330;9.876;2023-01-29T12:20:30;104681.09;;;3.74;100.00
7309;BME280;3695;53.330;9.876;2023-01-29T12:23:10;104619.19;;;3.78;100.00
7309;BME280;3695;53.330;9.876;2023-01-29T12:25:45;104533.22;;;3.63;100.00
7309;BME280;3695;53.330;9.876;2023-01-29T12:28:22;104458.28;;;3.60;100.00
7309;BME280;3695;53.330;9.876;2023-01-29T12:31:05;104428.50;;;3.82;100.00
7309;BME280;3695;53.330;9.876;2023-01-29T12:33:38;104368.03;;;3.74;100.00
7309;BME280;3695;53.330;9.876;2023-01-29T12:36:13;104294.63;;;3.75;100.00
7309;BME280;3695;53.330;9.876;2023-01-29T12:38:43;104243.94;;;3.87;100.00
7309;BME280;3695;53.330;9.876;2023-01-29T12:41:24;104179.97;;;3.79;100.00
7309;BME280;3695;53.330;9.876;2023-01-29T12:43:56;104122.50;;;3.83;100.00
7309;BME280;3695;53.330;9.876;2023-01-29T12:46:27;104063.66;;;3.80;100.00
7309;BME280;3695;53.330;9.876;2023-01-29T12:48:57;104003.91;;;3.62;100.00
7309;BME280;3695;53.330;9.876;2023-01-29T12:51:30;103989.72;;;3.74;100.00
7309;BME280;3695;53.330;9.876;2023-01-29T12:54:03;103970.41;;;3.84;100.00
7309;BME280;3695;53.330;9.876;2023-01-29T12:56:35;103964.09;;;3.85;100.00
7309;BME280;3695;53.330;9.876;2023-01-29T12:59:09;103940.50;;;3.61;100.00
7309;BME280;3695;53.330;9.876;2023-01-29T13:01:42;103954.75;;;3.76;100.00
7309;BME280;3695;53.330;9.876;2023-01-29T13:04:15;103934.53;;;3.70;100.00
7309;BME280;3695;53.330;9.876;2023-01-29T13:06:46;103926.72;;;3.82;100.00
7309;BME280;3695;53.330;9.876;2023-01-29T13:09:19;103910.41;;;3.85;100.00
7309;BME280;3695;53.330;9.876;2023-01-29T13:11:51;103899.66;;;3.99;100.00
7309;BME280;3695;53.330;9.876;2023-01-29T13:14:21;103890.22;;;4.06;100.00
7309;BME280;3695;53.330;9.876;2023-01-29T13:16:52;103858.63;;;3.97;100.00
7309;BME280;3695;53.330;9.876;2023-01-29T13:19:23;103847.94;;;3.83;100.00
7309;BME280;3695;53.330;9.876;2023-01-29T13:21:53;103839.13;;;4.07;100.00
7309;BME280;3695;53.330;9.876;2023-01-29T13:24:22;103812.44;;;3.92;100.00
7309;BME280;3695;53.330;9.876;2023-01-29T13:26:50;103788.56;;;4.01;100.00
7309;BME280;3695;53.330;9.876;2023-01-29T13:29:20;103727.13;;;3.97;100.00
7309;BME280;3695;53.330;9.876;2023-01-29T13:31:48;103698.38;;;3.99;100.00
7309;BME280;3695;53.330;9.876;2023-01-29T13:34:21;103652.97;;;4.08;100.00